createdAt,value
2019-03-18T00:02:25.807Z,4.10
2019-03-18T00:04:55.459Z,4.63
2019-03-18T00:07:24.949Z,4.20
2019-03-18T00:09:54.532Z,4.83
2019-03-18T00:12:23.709Z,4.20
2019-03-18T00:15:01.137Z,5.23
2019-03-18T00:17:26.353Z,5.30
2019-03-18T00:19:55.552Z,6.10
2019-03-18T00:22:24.721Z,5.33
2019-03-18T00:24:53.953Z,5.47
2019-03-18T00:27:23.456Z,4.93
2019-03-18T00:29:52.953Z,5.50
2019-03-18T00:32:22.494Z,6.60
2019-03-18T00:34:51.642Z,6.80
2019-03-18T00:37:20.784Z,5.37
2019-03-18T00:39:50.128Z,5.10
2019-03-18T00:42:20.004Z,5.90
2019-03-18T00:44:49.156Z,5.27
2019-03-18T00:47:18.548Z,5.40
2019-03-18T00:49:50.121Z,5.10
2019-03-18T00:52:19.675Z,5.67
2019-03-18T00:54:48.878Z,5.73
2019-03-18T00:57:18.384Z,6.20
2019-03-18T00:59:47.645Z,7.07
2019-03-18T01:02:16.869Z,6.10
2019-03-18T01:04:46.220Z,7.87
2019-03-18T01:07:16.174Z,6.93
2019-03-18T01:09:45.363Z,7.13
2019-03-18T01:12:14.877Z,7.70
2019-03-18T01:14:44.250Z,7.73
2019-03-18T01:17:13.784Z,9.50
2019-03-18T01:19:42.997Z,7.87
2019-03-18T01:22:13.970Z,7.57
2019-03-18T01:24:43.712Z,7.90
2019-03-18T01:27:13.251Z,7.10
2019-03-18T01:29:42.955Z,8.70
2019-03-18T01:32:12.732Z,8.23
2019-03-18T01:34:42.199Z,6.80
2019-03-18T01:37:11.731Z,7.93
2019-03-18T01:39:41.322Z,7.87
2019-03-18T01:42:10.468Z,7.73
2019-03-18T01:44:39.694Z,8.07
2019-03-18T01:47:09.505Z,7.07
2019-03-18T01:49:38.716Z,6.67
2019-03-18T01:52:07.867Z,7.33
2019-03-18T01:54:37.038Z,8.53
2019-03-18T01:57:06.650Z,6.90
2019-03-18T01:59:35.827Z,7.10
2019-03-18T02:02:05.305Z,7.20
2019-03-18T02:04:34.546Z,5.33
2019-03-18T02:07:03.722Z,5.20
2019-03-18T02:09:33.125Z,5.00
2019-03-18T02:12:02.400Z,4.40
2019-03-18T02:14:32.251Z,3.53
2019-03-18T02:17:01.380Z,2.87
2019-03-18T02:19:30.591Z,3.07
2019-03-18T02:21:59.744Z,2.33
2019-03-18T02:24:29.228Z,2.27
2019-03-18T02:26:58.700Z,2.70
2019-03-18T02:29:28.676Z,2.30
2019-03-18T02:31:57.807Z,2.40
2019-03-18T02:34:27.398Z,2.50
2019-03-18T02:36:56.991Z,2.50
2019-03-18T02:39:26.958Z,2.57
2019-03-18T02:41:56.159Z,2.77
2019-03-18T02:44:25.629Z,2.60
2019-03-18T02:46:55.377Z,4.30
2019-03-18T02:49:24.589Z,4.00
2019-03-18T02:51:54.172Z,4.80
2019-03-18T02:54:23.403Z,5.43
2019-03-18T02:56:52.587Z,5.70
2019-03-18T02:59:21.718Z,5.10
2019-03-18T03:01:50.894Z,4.70
2019-03-18T03:04:20.131Z,5.20
2019-03-18T03:06:49.275Z,4.33
2019-03-18T03:09:18.842Z,3.27
2019-03-18T03:11:48.070Z,3.30
2019-03-18T03:14:17.606Z,2.57
2019-03-18T03:16:46.749Z,2.63
2019-03-18T03:19:15.917Z,2.60
2019-03-18T03:21:45.123Z,2.60
2019-03-18T03:24:14.323Z,2.23
2019-03-18T03:26:43.449Z,2.87
2019-03-18T03:29:12.948Z,2.53
2019-03-18T03:31:42.129Z,4.07
2019-03-18T03:34:13.898Z,3.47
2019-03-18T03:36:43.183Z,3.20
2019-03-18T03:39:12.349Z,3.03
2019-03-18T03:41:41.547Z,5.90
2019-03-18T03:44:10.723Z,4.77
2019-03-18T03:46:43.811Z,2.77
2019-03-18T03:49:11.145Z,3.20
2019-03-18T03:51:40.325Z,2.90
2019-03-18T03:54:09.848Z,3.10
2019-03-18T03:56:39.029Z,3.03
2019-03-18T03:59:08.222Z,3.60
2019-03-18T04:01:37.579Z,5.37
2019-03-18T04:04:06.849Z,3.70
2019-03-18T04:06:35.991Z,3.00
2019-03-18T04:09:07.244Z,3.27
2019-03-18T04:11:36.664Z,3.00
2019-03-18T04:14:05.868Z,3.37
2019-03-18T04:16:35.062Z,3.07
2019-03-18T04:19:04.248Z,3.07
2019-03-18T04:21:33.785Z,3.20
2019-03-18T04:24:03.033Z,2.87
2019-03-18T04:26:32.618Z,3.57
2019-03-18T04:29:02.937Z,4.03
2019-03-18T04:31:32.113Z,3.03
2019-03-18T04:34:03.763Z,3.40
2019-03-18T04:36:33.005Z,4.47
2019-03-18T04:39:02.197Z,4.00
2019-03-18T04:41:31.433Z,3.60
2019-03-18T04:44:00.611Z,3.73
2019-03-18T04:46:30.836Z,4.00
2019-03-18T04:49:00.016Z,3.87
2019-03-18T04:51:29.228Z,3.90
2019-03-18T04:53:58.499Z,4.53
2019-03-18T04:56:27.681Z,6.43
2019-03-18T04:58:56.883Z,4.10
2019-03-18T05:01:26.055Z,4.30
2019-03-18T05:03:55.916Z,4.80
2019-03-18T05:06:25.121Z,4.03
2019-03-18T05:08:54.349Z,5.10
2019-03-18T05:11:23.563Z,5.30
2019-03-18T05:13:53.213Z,4.43
2019-03-18T05:16:22.894Z,5.20
2019-03-18T05:18:52.620Z,4.43
2019-03-18T05:21:21.834Z,4.47
2019-03-18T05:23:51.427Z,5.10
2019-03-18T05:26:22.345Z,4.23
2019-03-18T05:28:51.788Z,4.90
2019-03-18T05:31:21.008Z,4.53
2019-03-18T05:33:50.745Z,3.97
2019-03-18T05:36:19.958Z,4.83
2019-03-18T05:38:49.125Z,4.63
2019-03-18T05:41:18.595Z,4.43
2019-03-18T05:43:47.780Z,3.80
2019-03-18T05:46:16.999Z,5.00
2019-03-18T05:48:46.532Z,3.70
2019-03-18T05:51:15.688Z,4.70
2019-03-18T05:53:45.228Z,3.33
2019-03-18T05:56:16.265Z,6.30
2019-03-18T05:58:45.953Z,3.53
2019-03-18T06:01:16.508Z,3.43
2019-03-18T06:03:46.056Z,3.70
2019-03-18T06:06:15.631Z,3.30
2019-03-18T06:08:45.124Z,3.60
2019-03-18T06:11:14.616Z,3.07
2019-03-18T06:13:43.772Z,4.83
2019-03-18T06:16:12.964Z,3.43
2019-03-18T06:18:42.156Z,4.70
2019-03-18T06:21:13.054Z,3.87
2019-03-18T06:23:42.576Z,3.87
2019-03-18T06:26:12.176Z,3.93
2019-03-18T06:28:41.386Z,3.40
2019-03-18T06:31:10.548Z,3.72
2019-03-18T06:33:39.725Z,3.53
2019-03-18T06:36:09.124Z,3.33
2019-03-18T06:38:38.320Z,3.53
2019-03-18T06:41:07.761Z,3.43
2019-03-18T06:43:36.972Z,3.70
2019-03-18T06:46:06.147Z,3.77
2019-03-18T06:48:35.702Z,4.03
2019-03-18T06:51:05.181Z,3.93
2019-03-18T06:53:34.694Z,4.17
2019-03-18T06:56:04.204Z,2.90
2019-03-18T06:58:33.413Z,3.07
2019-03-18T07:01:03.008Z,4.03
2019-03-18T07:03:32.531Z,2.90
2019-03-18T07:06:01.878Z,3.60
2019-03-18T07:08:31.115Z,5.57
2019-03-18T07:11:00.245Z,5.50
2019-03-18T07:13:29.867Z,3.57
2019-03-18T07:16:00.201Z,4.20
2019-03-18T07:18:30.372Z,5.30
2019-03-18T07:20:59.970Z,4.90
2019-03-18T07:23:29.187Z,3.80
2019-03-18T07:25:58.356Z,3.80
2019-03-18T07:28:27.918Z,3.90
2019-03-18T07:30:57.412Z,5.03
2019-03-18T07:33:26.978Z,3.87
2019-03-18T07:35:56.211Z,3.10
2019-03-18T07:38:27.153Z,4.60
2019-03-18T07:40:56.351Z,3.33
2019-03-18T07:43:25.925Z,4.80
2019-03-18T07:45:56.883Z,3.40
2019-03-18T07:48:31.240Z,4.90
2019-03-18T07:50:56.986Z,5.00
2019-03-18T07:53:26.213Z,4.23
2019-03-18T07:55:55.836Z,3.70
2019-03-18T07:58:28.258Z,4.80
2019-03-18T08:00:57.916Z,3.33
2019-03-18T08:03:28.635Z,3.47
2019-03-18T08:05:58.183Z,3.90
2019-03-18T08:08:27.354Z,3.97
2019-03-18T08:10:56.542Z,4.67
2019-03-18T08:13:26.164Z,3.47
2019-03-18T08:15:55.328Z,3.47
2019-03-18T08:18:24.511Z,3.80
2019-03-18T08:20:53.969Z,3.97
2019-03-18T08:23:23.595Z,4.10
2019-03-18T08:25:52.797Z,2.37
2019-03-18T08:28:21.984Z,4.23
2019-03-18T08:30:51.155Z,3.80
2019-03-18T08:33:20.361Z,3.93
2019-03-18T08:35:49.536Z,3.50
2019-03-18T08:38:23.011Z,3.10
2019-03-18T08:40:52.247Z,3.00
2019-03-18T08:43:21.446Z,3.40
2019-03-18T08:45:50.703Z,2.10
2019-03-18T08:48:20.572Z,3.50
2019-03-18T08:50:49.770Z,4.50
2019-03-18T08:53:19.275Z,5.90
2019-03-18T08:55:48.786Z,2.50
2019-03-18T08:58:19.004Z,3.33
2019-03-18T09:00:48.906Z,3.53
2019-03-18T09:03:18.141Z,3.70
2019-03-18T09:05:47.317Z,4.17
2019-03-18T09:08:16.820Z,3.10
2019-03-18T09:10:46.003Z,3.60
2019-03-18T09:13:15.215Z,4.17
2019-03-18T09:15:47.721Z,3.33
2019-03-18T09:18:17.207Z,3.20
2019-03-18T09:20:46.710Z,3.50
2019-03-18T09:23:15.935Z,3.57
2019-03-18T09:25:45.089Z,3.57
2019-03-18T09:28:14.254Z,4.40
2019-03-18T09:30:43.862Z,3.80
2019-03-18T09:33:13.346Z,2.20
2019-03-18T09:35:42.599Z,2.50
2019-03-18T09:38:11.755Z,1.53
2019-03-18T09:40:41.330Z,2.77
2019-03-18T09:43:10.540Z,3.67
2019-03-18T09:45:40.477Z,2.93
2019-03-18T09:48:09.661Z,2.40
2019-03-18T09:50:39.148Z,1.87
2019-03-18T09:53:08.599Z,3.70
2019-03-18T09:55:38.551Z,2.90
2019-03-18T09:58:07.733Z,2.23
2019-03-18T10:00:37.309Z,1.50
2019-03-18T10:03:08.061Z,2.90
2019-03-18T10:05:37.930Z,2.00
2019-03-18T10:08:07.116Z,2.80
2019-03-18T10:10:36.286Z,2.63
2019-03-18T10:13:06.603Z,1.30
2019-03-18T10:15:36.156Z,1.60
2019-03-18T10:18:05.361Z,1.67
2019-03-18T10:20:34.903Z,2.63
2019-03-18T10:23:04.359Z,2.20
2019-03-18T10:25:33.883Z,2.33
2019-03-18T10:28:03.241Z,2.77
2019-03-18T10:30:33.981Z,2.53
2019-03-18T10:33:03.325Z,3.13
2019-03-18T10:35:32.501Z,2.47
2019-03-18T10:38:02.020Z,2.33
2019-03-18T10:40:31.274Z,2.53
2019-03-18T10:43:00.463Z,1.97
2019-03-18T10:45:30.003Z,2.97
2019-03-18T10:48:00.659Z,2.00
2019-03-18T10:50:29.888Z,2.40
2019-03-18T10:52:59.402Z,5.23
2019-03-18T10:55:28.590Z,3.60
2019-03-18T10:57:57.734Z,2.93
2019-03-18T11:00:26.949Z,3.43
2019-03-18T11:02:59.265Z,3.60
2019-03-18T11:05:28.474Z,2.70
2019-03-18T11:07:57.948Z,3.00
2019-03-18T11:10:27.350Z,2.23
2019-03-18T11:12:56.556Z,2.40
2019-03-18T11:15:26.051Z,2.67
2019-03-18T11:17:55.280Z,2.80
2019-03-18T11:20:24.483Z,2.10
2019-03-18T11:22:53.651Z,2.10
2019-03-18T11:25:23.161Z,2.80
2019-03-18T11:27:52.338Z,2.73
2019-03-18T11:30:21.741Z,2.20
2019-03-18T11:32:51.410Z,3.60
2019-03-18T11:35:21.029Z,2.90
2019-03-18T11:37:50.143Z,2.80
2019-03-18T11:40:19.886Z,3.00
2019-03-18T11:42:49.111Z,2.43
2019-03-18T11:45:18.553Z,4.37
2019-03-18T11:47:49.187Z,1.80
2019-03-18T11:50:18.337Z,5.10
2019-03-18T11:52:47.557Z,2.50
2019-03-18T11:55:16.774Z,3.40
2019-03-18T11:57:46.384Z,3.60
2019-03-18T12:00:16.776Z,2.83
2019-03-18T12:02:46.053Z,2.60
2019-03-18T12:05:16.476Z,3.70
2019-03-18T12:07:45.713Z,3.57
2019-03-18T12:10:16.332Z,3.00
2019-03-18T12:12:45.527Z,3.87
2019-03-18T12:15:15.039Z,2.80
2019-03-18T12:17:44.224Z,3.47
2019-03-18T12:20:23.759Z,3.13
2019-03-18T12:22:45.150Z,3.00
2019-03-18T12:25:14.293Z,5.10
2019-03-18T12:27:43.809Z,1.70
2019-03-18T12:30:17.866Z,1.57
2019-03-18T12:32:47.730Z,2.97
2019-03-18T12:35:17.314Z,2.80
2019-03-18T12:37:46.455Z,1.90
2019-03-18T12:40:15.656Z,1.50
2019-03-18T12:42:44.869Z,1.13
2019-03-18T12:45:14.728Z,1.60
2019-03-18T12:47:44.341Z,1.63
2019-03-18T12:50:15.298Z,2.37
2019-03-18T12:52:44.789Z,2.20
2019-03-18T12:55:14.479Z,2.20
2019-03-18T12:57:44.784Z,2.10
2019-03-18T13:00:16.935Z,1.80
2019-03-18T13:02:46.599Z,3.10
2019-03-18T13:05:16.180Z,2.70
2019-03-18T13:07:47.251Z,2.77
2019-03-18T13:10:16.653Z,2.17
2019-03-18T13:12:45.817Z,1.87
2019-03-18T13:15:15.580Z,2.07
2019-03-18T13:17:45.481Z,2.20
2019-03-18T13:20:15.164Z,2.50
2019-03-18T13:22:44.372Z,1.60
2019-03-18T13:25:13.741Z,1.70
2019-03-18T13:27:42.979Z,2.37
2019-03-18T13:30:15.454Z,2.67
2019-03-18T13:32:44.786Z,2.20
2019-03-18T13:35:14.813Z,2.83
2019-03-18T13:37:44.270Z,2.23
2019-03-18T13:40:13.487Z,1.87
2019-03-18T13:42:42.635Z,2.47
2019-03-18T13:45:13.749Z,2.30
2019-03-18T13:47:43.072Z,2.13
2019-03-18T13:50:13.810Z,3.53
2019-03-18T13:52:43.038Z,1.90
2019-03-18T13:55:12.240Z,1.80
2019-03-18T13:57:41.780Z,2.77
2019-03-18T14:00:12.972Z,1.80
2019-03-18T14:02:42.572Z,1.77
2019-03-18T14:05:11.950Z,2.63
2019-03-18T14:07:41.188Z,1.70
2019-03-18T14:10:11.926Z,1.43
2019-03-18T14:12:41.143Z,1.53
2019-03-18T14:15:12.696Z,1.67
2019-03-18T14:17:41.936Z,1.40
2019-03-18T14:20:12.493Z,1.30
2019-03-18T14:22:41.695Z,1.90
2019-03-18T14:25:10.875Z,1.97
2019-03-18T14:27:40.047Z,1.77
2019-03-18T14:30:12.260Z,1.57
2019-03-18T14:32:41.726Z,1.40
2019-03-18T14:35:11.229Z,1.90
2019-03-18T14:37:40.406Z,2.27
2019-03-18T14:40:11.009Z,1.17
2019-03-18T14:42:40.216Z,2.17
2019-03-18T14:45:11.892Z,1.67
2019-03-18T14:47:41.373Z,1.40
2019-03-18T14:50:10.815Z,1.87
2019-03-18T14:52:40.016Z,1.83
2019-03-18T14:55:10.326Z,2.63
2019-03-18T14:57:39.681Z,1.73
2019-03-18T15:00:14.748Z,2.27
2019-03-18T15:02:43.732Z,1.47
2019-03-18T15:05:13.330Z,2.23
2019-03-18T15:07:42.495Z,1.50
2019-03-18T15:10:12.260Z,1.73
2019-03-18T15:12:41.848Z,2.07
2019-03-18T15:15:13.142Z,1.97
2019-03-18T15:17:42.312Z,2.03
2019-03-18T15:20:12.472Z,1.63
2019-03-18T15:22:42.221Z,1.37
2019-03-18T15:25:14.002Z,2.70
2019-03-18T15:27:43.235Z,1.73
2019-03-18T15:30:14.423Z,1.67
2019-03-18T15:32:43.583Z,1.90
2019-03-18T15:35:13.407Z,1.83
2019-03-18T15:37:42.952Z,1.83
2019-03-18T15:40:13.408Z,1.60
2019-03-18T15:42:43.101Z,2.00
2019-03-18T15:45:12.868Z,2.07
2019-03-18T15:47:42.048Z,2.43
2019-03-18T15:50:14.522Z,2.27
2019-03-18T15:52:43.691Z,1.83
2019-03-18T15:55:13.466Z,2.23
2019-03-18T15:57:43.000Z,1.87
2019-03-18T16:00:14.312Z,2.33
2019-03-18T16:02:43.553Z,2.40
2019-03-18T16:05:12.890Z,1.30
2019-03-18T16:07:42.356Z,1.60
2019-03-18T16:10:12.269Z,2.00
2019-03-18T16:12:41.473Z,2.60
2019-03-18T16:15:11.522Z,2.30
2019-03-18T16:17:41.813Z,1.20
2019-03-18T16:20:12.462Z,1.90
2019-03-18T16:22:42.027Z,2.90
2019-03-18T16:25:11.769Z,2.17
2019-03-18T16:27:41.379Z,4.07
2019-03-18T16:30:12.224Z,2.67
2019-03-18T16:32:41.723Z,2.53
2019-03-18T16:35:11.471Z,1.73
2019-03-18T16:37:41.008Z,2.23
2019-03-18T16:40:11.504Z,1.97
2019-03-18T16:42:41.973Z,3.07
2019-03-18T16:45:12.241Z,1.90
2019-03-18T16:47:41.798Z,2.17
2019-03-18T16:50:13.333Z,3.00
2019-03-18T16:52:42.549Z,3.03
2019-03-18T16:55:12.289Z,3.10
2019-03-18T16:57:41.498Z,2.40
2019-03-18T17:00:16.160Z,2.77
2019-03-18T17:02:46.551Z,2.10
2019-03-18T17:05:16.363Z,3.20
2019-03-18T17:07:48.036Z,2.30
2019-03-18T17:10:20.333Z,4.47
2019-03-18T17:12:49.902Z,4.07
2019-03-18T17:15:19.511Z,2.10
2019-03-18T17:17:48.897Z,1.73
2019-03-18T17:20:18.164Z,1.87
2019-03-18T17:22:50.153Z,2.20
2019-03-18T17:25:18.863Z,3.10
2019-03-18T17:27:48.443Z,2.57
2019-03-18T17:30:18.642Z,2.20
2019-03-18T17:32:48.611Z,2.40
2019-03-18T17:35:17.905Z,2.73
2019-03-18T17:37:47.180Z,3.30
2019-03-18T17:40:16.633Z,3.10
2019-03-18T17:42:46.829Z,2.60
2019-03-18T17:45:16.200Z,3.37
2019-03-18T17:47:45.859Z,2.80
2019-03-18T17:50:16.943Z,3.73
2019-03-18T17:52:46.382Z,2.70
2019-03-18T17:55:15.613Z,3.20
2019-03-18T17:57:47.359Z,2.43
2019-03-18T18:00:22.996Z,3.10
2019-03-18T18:02:52.865Z,2.47
2019-03-18T18:05:22.745Z,2.60
2019-03-18T18:07:52.327Z,2.43
2019-03-18T18:10:21.492Z,1.77
2019-03-18T18:12:50.842Z,2.97
2019-03-18T18:15:20.043Z,3.03
2019-03-18T18:17:49.235Z,2.70
2019-03-18T18:20:18.606Z,2.83
2019-03-18T18:22:49.424Z,2.53
2019-03-18T18:25:18.692Z,2.10
2019-03-18T18:27:47.943Z,2.33
2019-03-18T18:30:17.135Z,2.63
2019-03-18T18:32:46.538Z,2.10
2019-03-18T18:35:15.742Z,2.00
2019-03-18T18:37:45.051Z,3.90
2019-03-18T18:40:16.069Z,2.80
2019-03-18T18:42:46.756Z,1.43
2019-03-18T18:45:15.981Z,2.60
2019-03-18T18:47:45.448Z,2.63
2019-03-18T18:50:14.917Z,3.73
2019-03-18T18:52:44.187Z,2.33
2019-03-18T18:55:13.766Z,2.17
2019-03-18T18:57:43.298Z,2.40
2019-03-18T19:00:14.845Z,1.67
2019-03-18T19:02:44.147Z,2.40
2019-03-18T19:05:14.108Z,2.17
2019-03-18T19:07:43.353Z,2.13
2019-03-18T19:10:12.916Z,3.83
2019-03-18T19:12:42.261Z,2.37
2019-03-18T19:15:16.961Z,2.80
2019-03-18T19:17:46.932Z,2.30
2019-03-18T19:20:16.464Z,2.20
2019-03-18T19:22:46.598Z,2.17
2019-03-18T19:25:17.452Z,2.53
2019-03-18T19:27:46.978Z,2.80
2019-03-18T19:30:17.857Z,2.17
2019-03-18T19:32:47.511Z,2.50
2019-03-18T19:35:16.755Z,3.10
2019-03-18T19:37:45.944Z,2.40
2019-03-18T19:40:15.583Z,3.50
2019-03-18T19:42:44.903Z,3.80
2019-03-18T19:45:14.402Z,2.53
2019-03-18T19:47:43.853Z,2.97
2019-03-18T19:50:15.900Z,2.57
2019-03-18T19:52:45.413Z,2.47
2019-03-18T19:55:14.563Z,3.10
2019-03-18T19:57:43.881Z,2.23
2019-03-18T20:00:16.081Z,3.13
2019-03-18T20:02:45.302Z,2.10
2019-03-18T20:05:16.505Z,3.00
2019-03-18T20:07:45.533Z,3.57
2019-03-18T20:10:14.947Z,3.63
2019-03-18T20:12:44.434Z,2.90
2019-03-18T20:15:14.478Z,2.60
2019-03-18T20:17:44.014Z,3.57
2019-03-18T20:20:14.244Z,2.97
2019-03-18T20:22:43.714Z,3.33
2019-03-18T20:25:13.200Z,2.83
2019-03-18T20:27:42.431Z,2.70
2019-03-18T20:30:13.675Z,3.53
2019-03-18T20:32:43.908Z,3.90
2019-03-18T20:35:13.931Z,4.63
2019-03-18T20:37:43.203Z,3.00
2019-03-18T20:40:13.340Z,3.70
2019-03-18T20:42:42.538Z,3.87
2019-03-18T20:45:13.560Z,3.27
2019-03-18T20:47:42.738Z,3.10
2019-03-18T20:50:13.262Z,2.67
2019-03-18T20:52:42.960Z,2.97
2019-03-18T20:55:12.798Z,4.13
2019-03-18T20:57:42.098Z,3.90
2019-03-18T21:00:12.383Z,3.80
2019-03-18T21:02:42.046Z,3.20
2019-03-18T21:05:11.400Z,3.70
2019-03-18T21:07:40.957Z,3.60
2019-03-18T21:10:10.728Z,3.63
2019-03-18T21:12:41.309Z,3.00
2019-03-18T21:15:10.753Z,3.07
2019-03-18T21:17:39.913Z,3.07
2019-03-18T21:20:11.506Z,4.13
2019-03-18T21:22:41.007Z,4.20
2019-03-18T21:25:10.351Z,3.80
2019-03-18T21:27:39.538Z,4.00
2019-03-18T21:30:09.370Z,3.40
2019-03-18T21:32:38.629Z,4.33
2019-03-18T21:35:10.250Z,4.08
2019-03-18T21:37:39.732Z,4.33
2019-03-18T21:40:10.235Z,4.10
2019-03-18T21:42:39.815Z,4.97
2019-03-18T21:45:10.876Z,4.60
2019-03-18T21:47:40.137Z,4.43
2019-03-18T21:50:09.774Z,5.57
2019-03-18T21:52:39.221Z,4.13
2019-03-18T21:55:09.225Z,3.95
2019-03-18T21:57:38.697Z,3.47
2019-03-18T22:00:11.623Z,4.47
2019-03-18T22:02:41.144Z,4.50
2019-03-18T22:05:10.329Z,6.53
2019-03-18T22:07:39.837Z,3.97
2019-03-18T22:10:10.714Z,3.83
2019-03-18T22:12:40.426Z,3.93
2019-03-18T22:15:10.493Z,4.70
2019-03-18T22:17:40.051Z,3.50
2019-03-18T22:20:11.642Z,3.83
2019-03-18T22:22:41.085Z,4.50
2019-03-18T22:25:10.645Z,4.57
2019-03-18T22:27:40.195Z,4.27
2019-03-18T22:30:09.770Z,4.37
2019-03-18T22:32:39.644Z,4.20
2019-03-18T22:35:09.072Z,3.97
2019-03-18T22:37:39.759Z,4.13
2019-03-18T22:40:09.773Z,3.90
2019-03-18T22:42:39.406Z,3.40
2019-03-18T22:45:11.676Z,3.40
2019-03-18T22:47:40.853Z,3.80
2019-03-18T22:50:11.591Z,4.20
2019-03-18T22:52:40.799Z,3.97
2019-03-18T22:55:10.627Z,3.47
2019-03-18T22:57:40.144Z,4.43
2019-03-18T23:00:34.784Z,3.80
2019-03-18T23:03:04.044Z,3.80
2019-03-18T23:05:33.257Z,4.70
2019-03-18T23:08:02.419Z,4.40
2019-03-18T23:10:32.089Z,4.72
2019-03-18T23:13:01.646Z,5.10
2019-03-18T23:15:30.874Z,5.10
2019-03-18T23:18:00.072Z,5.23
2019-03-18T23:20:29.247Z,5.53
2019-03-18T23:22:58.537Z,6.00
2019-03-18T23:25:27.716Z,5.93
2019-03-18T23:27:58.683Z,7.03
2019-03-18T23:30:28.344Z,6.57
2019-03-18T23:32:58.342Z,6.80
2019-03-18T23:35:27.931Z,6.73
2019-03-18T23:37:57.187Z,7.30
2019-03-18T23:40:26.333Z,5.83
2019-03-18T23:42:55.560Z,6.27
2019-03-18T23:45:25.133Z,4.63
2019-03-18T23:47:54.302Z,6.17
2019-03-18T23:50:24.018Z,5.67
2019-03-18T23:52:53.205Z,7.07
2019-03-18T23:55:22.396Z,6.80
2019-03-18T23:57:54.273Z,9.93
